sensor_id;sensor_type;location;lat;lon;timestamp;temperature;humidity
506;DHT22;551;48.524;9.056;2022-07-23T00:01:16;24.10;1.00
506;DHT22;551;48.524;9.056;2022-07-23T00:03:42;23.00;1.00
506;DHT22;551;48.524;9.056;2022-07-23T00:06:08;23.40;1.00
506;DHT22;551;48.524;9.056;2022-07-23T00:08:33;23.50;1.00
506;DHT22;551;48.524;9.056;2022-07-23T00:10:59;24.40;1.00
506;DHT22;551;48.524;9.056;2022-07-23T00:13:25;23.20;1.00
506;DHT22;551;48.524;9.056;2022-07-23T00:15:51;23.30;1.00
506;DHT22;551;48.524;9.056;2022-07-23T00:18:17;23.30;1.00
506;DHT22;551;48.524;9.056;2022-07-23T00:20:42;23.20;1.00
506;DHT22;551;48.524;9.056;2022-07-23T00:23:08;23.30;1.00
506;DHT22;551;48.524;9.056;2022-07-23T00:25:33;23.40;1.00
506;DHT22;551;48.524;9.056;2022-07-23T00:28:02;23.10;1.00
506;DHT22;551;48.524;9.056;2022-07-23T00:30:28;23.90;1.00
506;DHT22;551;48.524;9.056;2022-07-23T00:57:23;23.00;1.00
506;DHT22;551;48.524;9.056;2022-07-23T00:59:49;24.20;1.00
506;DHT22;551;48.524;9.056;2022-07-23T01:04:40;22.70;1.00
506;DHT22;551;48.524;9.056;2022-07-23T01:14:25;22.80;1.00
506;DHT22;551;48.524;9.056;2022-07-23T01:16:51;23.70;1.00
506;DHT22;551;48.524;9.056;2022-07-23T01:41:13;22.40;1.00
506;DHT22;551;48.524;9.056;2022-07-23T01:43:38;22.60;1.00
506;DHT22;551;48.524;9.056;2022-07-23T01:46:04;23.60;1.00
506;DHT22;551;48.524;9.056;2022-07-23T01:48:30;22.80;1.00
506;DHT22;551;48.524;9.056;2022-07-23T01:50:55;22.30;1.00
506;DHT22;551;48.524;9.056;2022-07-23T01:53:21;22.40;1.00
506;DHT22;551;48.524;9.056;2022-07-23T01:55:46;22.30;1.00
506;DHT22;551;48.524;9.056;2022-07-23T01:58:12;22.50;1.00
506;DHT22;551;48.524;9.056;2022-07-23T02:00:37;22.70;1.00
506;DHT22;551;48.524;9.056;2022-07-23T02:03:03;22.80;1.00
506;DHT22;551;48.524;9.056;2022-07-23T02:05:29;22.50;1.00
506;DHT22;551;48.524;9.056;2022-07-23T02:07:55;22.40;1.00
506;DHT22;551;48.524;9.056;2022-07-23T02:10:21;22.40;1.00
506;DHT22;551;48.524;9.056;2022-07-23T02:12:47;23.00;1.00
506;DHT22;551;48.524;9.056;2022-07-23T02:15:13;23.00;1.00
506;DHT22;551;48.524;9.056;2022-07-23T02:17:39;22.00;1.00
506;DHT22;551;48.524;9.056;2022-07-23T02:20:06;21.90;1.00
506;DHT22;551;48.524;9.056;2022-07-23T02:22:32;22.00;1.00
506;DHT22;551;48.524;9.056;2022-07-23T02:24:57;21.90;1.00
506;DHT22;551;48.524;9.056;2022-07-23T02:27:23;22.20;1.00
506;DHT22;551;48.524;9.056;2022-07-23T02:29:49;21.80;1.00
506;DHT22;551;48.524;9.056;2022-07-23T02:32:14;21.50;1.00
506;DHT22;551;48.524;9.056;2022-07-23T02:34:40;21.90;1.00
506;DHT22;551;48.524;9.056;2022-07-23T02:37:06;22.30;1.00
506;DHT22;551;48.524;9.056;2022-07-23T02:41:59;21.80;1.00
506;DHT22;551;48.524;9.056;2022-07-23T02:44:25;21.90;1.00
506;DHT22;551;48.524;9.056;2022-07-23T02:46:50;21.60;1.00
506;DHT22;551;48.524;9.056;2022-07-23T02:49:16;21.80;1.00
506;DHT22;551;48.524;9.056;2022-07-23T02:51:41;21.70;1.00
506;DHT22;551;48.524;9.056;2022-07-23T02:54:07;22.50;1.00
506;DHT22;551;48.524;9.056;2022-07-23T02:56:33;22.20;1.00
506;DHT22;551;48.524;9.056;2022-07-23T02:58:58;21.80;1.00
506;DHT22;551;48.524;9.056;2022-07-23T03:01:24;21.80;1.00
506;DHT22;551;48.524;9.056;2022-07-23T03:03:49;21.80;1.00
506;DHT22;551;48.524;9.056;2022-07-23T03:06:15;21.60;1.00
506;DHT22;551;48.524;9.056;2022-07-23T03:11:06;21.70;1.00
506;DHT22;551;48.524;9.056;2022-07-23T03:13:36;21.80;1.00
506;DHT22;551;48.524;9.056;2022-07-23T03:16:02;21.90;1.00
506;DHT22;551;48.524;9.056;2022-07-23T03:18:28;21.90;1.00
506;DHT22;551;48.524;9.056;2022-07-23T03:20:54;21.80;1.00
506;DHT22;551;48.524;9.056;2022-07-23T03:23:19;21.80;1.00
506;DHT22;551;48.524;9.056;2022-07-23T03:25:48;21.90;1.00
506;DHT22;551;48.524;9.056;2022-07-23T03:28:17;21.90;1.00
506;DHT22;551;48.524;9.056;2022-07-23T03:30:44;21.80;1.00
506;DHT22;551;48.524;9.056;2022-07-23T03:33:12;21.70;1.00
506;DHT22;551;48.524;9.056;2022-07-23T03:35:38;21.60;1.00
506;DHT22;551;48.524;9.056;2022-07-23T03:38:03;21.50;1.00
506;DHT22;551;48.524;9.056;2022-07-23T03:40:29;21.50;1.00
506;DHT22;551;48.524;9.056;2022-07-23T03:42:55;21.60;1.00
506;DHT22;551;48.524;9.056;2022-07-23T03:45:20;21.30;1.00
506;DHT22;551;48.524;9.056;2022-07-23T03:47:46;21.60;1.00
506;DHT22;551;48.524;9.056;2022-07-23T03:50:11;21.30;1.00
506;DHT22;551;48.524;9.056;2022-07-23T03:52:37;21.40;1.00
506;DHT22;551;48.524;9.056;2022-07-23T03:55:03;21.20;1.00
506;DHT22;551;48.524;9.056;2022-07-23T03:57:29;20.90;1.00
506;DHT22;551;48.524;9.056;2022-07-23T03:59:55;21.00;1.00
506;DHT22;551;48.524;9.056;2022-07-23T04:02:21;21.70;1.00
506;DHT22;551;48.524;9.056;2022-07-23T04:04:46;21.40;1.00
506;DHT22;551;48.524;9.056;2022-07-23T04:07:12;21.10;1.00
506;DHT22;551;48.524;9.056;2022-07-23T04:09:39;22.30;1.00
506;DHT22;551;48.524;9.056;2022-07-23T04:12:06;21.50;1.00
506;DHT22;551;48.524;9.056;2022-07-23T04:14:32;21.50;1.00
506;DHT22;551;48.524;9.056;2022-07-23T04:16:59;21.40;1.00
506;DHT22;551;48.524;9.056;2022-07-23T04:19:25;21.50;1.00
506;DHT22;551;48.524;9.056;2022-07-23T04:21:50;22.10;1.00
506;DHT22;551;48.524;9.056;2022-07-23T04:24:16;21.60;1.00
506;DHT22;551;48.524;9.056;2022-07-23T04:26:42;21.50;1.00
506;DHT22;551;48.524;9.056;2022-07-23T04:29:07;21.80;1.00
506;DHT22;551;48.524;9.056;2022-07-23T04:31:33;21.90;1.00
506;DHT22;551;48.524;9.056;2022-07-23T04:33:58;21.40;1.00
506;DHT22;551;48.524;9.056;2022-07-23T04:36:24;21.60;1.00
506;DHT22;551;48.524;9.056;2022-07-23T04:38:49;21.40;1.00
506;DHT22;551;48.524;9.056;2022-07-23T04:41:15;21.50;1.00
506;DHT22;551;48.524;9.056;2022-07-23T04:43:40;22.10;1.00
506;DHT22;551;48.524;9.056;2022-07-23T04:46:06;22.00;1.00
506;DHT22;551;48.524;9.056;2022-07-23T04:48:31;22.70;1.00
506;DHT22;551;48.524;9.056;2022-07-23T04:50:57;22.10;1.00
506;DHT22;551;48.524;9.056;2022-07-23T04:53:23;22.20;1.00
506;DHT22;551;48.524;9.056;2022-07-23T04:55:48;22.70;1.00
506;DHT22;551;48.524;9.056;2022-07-23T04:58:14;22.70;1.00
506;DHT22;551;48.524;9.056;2022-07-23T05:00:39;22.70;1.00
506;DHT22;551;48.524;9.056;2022-07-23T05:03:05;22.80;1.00
506;DHT22;551;48.524;9.056;2022-07-23T05:05:31;23.10;1.00
506;DHT22;551;48.524;9.056;2022-07-23T05:07:56;22.90;1.00
506;DHT22;551;48.524;9.056;2022-07-23T05:10:22;23.00;1.00
506;DHT22;551;48.524;9.056;2022-07-23T05:12:47;22.80;1.00
506;DHT22;551;48.524;9.056;2022-07-23T05:15:13;23.10;1.00
506;DHT22;551;48.524;9.056;2022-07-23T05:17:39;22.40;1.00
506;DHT22;551;48.524;9.056;2022-07-23T05:20:05;22.70;1.00
506;DHT22;551;48.524;9.056;2022-07-23T05:22:31;22.80;1.00
506;DHT22;551;48.524;9.056;2022-07-23T05:24:56;22.70;1.00
506;DHT22;551;48.524;9.056;2022-07-23T05:27:22;22.40;1.00
506;DHT22;551;48.524;9.056;2022-07-23T05:29:47;23.00;1.00
506;DHT22;551;48.524;9.056;2022-07-23T05:32:13;22.70;1.00
506;DHT22;551;48.524;9.056;2022-07-23T05:34:39;22.80;1.00
506;DHT22;551;48.524;9.056;2022-07-23T05:37:05;22.60;1.00
506;DHT22;551;48.524;9.056;2022-07-23T05:39:31;23.40;1.00
506;DHT22;551;48.524;9.056;2022-07-23T05:41:57;23.10;1.00
506;DHT22;551;48.524;9.056;2022-07-23T05:46:48;25.20;1.00
506;DHT22;551;48.524;9.056;2022-07-23T05:49:14;27.00;1.00
506;DHT22;551;48.524;9.056;2022-07-23T05:51:40;29.70;1.00
506;DHT22;551;48.524;9.056;2022-07-23T05:54:05;29.90;1.00
506;DHT22;551;48.524;9.056;2022-07-23T05:56:31;31.20;1.00
506;DHT22;551;48.524;9.056;2022-07-23T06:01:22;33.70;1.00
506;DHT22;551;48.524;9.056;2022-07-23T06:03:48;34.00;1.00
506;DHT22;551;48.524;9.056;2022-07-23T07:55:46;32.50;1.00
506;DHT22;551;48.524;9.056;2022-07-23T07:58:11;32.80;1.00
506;DHT22;551;48.524;9.056;2022-07-23T08:00:37;31.50;1.00
506;DHT22;551;48.524;9.056;2022-07-23T08:03:02;31.80;1.00
506;DHT22;551;48.524;9.056;2022-07-23T08:05:30;32.30;1.00
506;DHT22;551;48.524;9.056;2022-07-23T08:07:57;32.30;1.00
506;DHT22;551;48.524;9.056;2022-07-23T08:10:24;32.50;1.00
506;DHT22;551;48.524;9.056;2022-07-23T08:20:21;33.40;1.00
506;DHT22;551;48.524;9.056;2022-07-23T08:52:19;36.60;1.00
506;DHT22;551;48.524;9.056;2022-07-23T10:27:04;42.80;1.00
506;DHT22;551;48.524;9.056;2022-07-23T10:34:58;40.00;1.00
506;DHT22;551;48.524;9.056;2022-07-23T10:47:55;41.70;1.00
506;DHT22;551;48.524;9.056;2022-07-23T10:50:26;42.00;1.00
506;DHT22;551;48.524;9.056;2022-07-23T10:57:57;40.00;1.00
506;DHT22;551;48.524;9.056;2022-07-23T11:00:25;39.40;1.00
506;DHT22;551;48.524;9.056;2022-07-23T11:05:23;39.70;1.00
506;DHT22;551;48.524;9.056;2022-07-23T11:16:14;38.80;1.00
506;DHT22;551;48.524;9.056;2022-07-23T11:34:40;41.50;1.00
506;DHT22;551;48.524;9.056;2022-07-23T11:37:08;40.90;1.00
506;DHT22;551;48.524;9.056;2022-07-23T11:39:35;38.90;1.00
506;DHT22;551;48.524;9.056;2022-07-23T11:42:02;39.00;1.00
506;DHT22;551;48.524;9.056;2022-07-23T11:44:38;39.20;1.00
506;DHT22;551;48.524;9.056;2022-07-23T11:47:09;39.90;1.00
506;DHT22;551;48.524;9.056;2022-07-23T11:49:35;40.30;1.00
506;DHT22;551;48.524;9.056;2022-07-23T11:52:12;40.70;1.00
506;DHT22;551;48.524;9.056;2022-07-23T11:55:05;40.90;1.00
506;DHT22;551;48.524;9.056;2022-07-23T11:57:36;41.90;1.00
506;DHT22;551;48.524;9.056;2022-07-23T12:00:20;42.30;1.00
506;DHT22;551;48.524;9.056;2022-07-23T12:02:52;42.50;1.00
506;DHT22;551;48.524;9.056;2022-07-23T12:05:20;43.10;1.00
506;DHT22;551;48.524;9.056;2022-07-23T12:07:48;42.60;1.00
506;DHT22;551;48.524;9.056;2022-07-23T12:10:22;42.30;1.00
506;DHT22;551;48.524;9.056;2022-07-23T12:12:54;42.20;1.00
506;DHT22;551;48.524;9.056;2022-07-23T12:15:23;40.20;1.00
506;DHT22;551;48.524;9.056;2022-07-23T12:17:50;40.50;1.00
506;DHT22;551;48.524;9.056;2022-07-23T12:20:18;39.70;1.00
506;DHT22;551;48.524;9.056;2022-07-23T12:22:47;39.40;1.00
506;DHT22;551;48.524;9.056;2022-07-23T14:18:22;31.70;1.00
506;DHT22;551;48.524;9.056;2022-07-23T14:20:48;31.90;1.00
506;DHT22;551;48.524;9.056;2022-07-23T14:23:13;31.50;1.00
506;DHT22;551;48.524;9.056;2022-07-23T14:25:39;31.40;1.00
506;DHT22;551;48.524;9.056;2022-07-23T14:28:04;31.20;1.00
506;DHT22;551;48.524;9.056;2022-07-23T14:30:30;31.10;1.00
506;DHT22;551;48.524;9.056;2022-07-23T14:32:55;31.00;1.00
506;DHT22;551;48.524;9.056;2022-07-23T14:35:21;31.00;1.00
506;DHT22;551;48.524;9.056;2022-07-23T14:37:47;31.20;1.00
506;DHT22;551;48.524;9.056;2022-07-23T14:40:13;31.40;1.00
506;DHT22;551;48.524;9.056;2022-07-23T14:42:38;31.70;1.00
506;DHT22;551;48.524;9.056;2022-07-23T14:45:04;32.10;1.00
506;DHT22;551;48.524;9.056;2022-07-23T14:47:31;32.30;1.00
506;DHT22;551;48.524;9.056;2022-07-23T14:49:57;33.20;1.00
506;DHT22;551;48.524;9.056;2022-07-23T14:52:22;32.60;1.00
506;DHT22;551;48.524;9.056;2022-07-23T14:54:48;33.20;1.00
506;DHT22;551;48.524;9.056;2022-07-23T14:57:13;33.10;1.00
506;DHT22;551;48.524;9.056;2022-07-23T14:59:39;32.70;1.00
506;DHT22;551;48.524;9.056;2022-07-23T15:02:07;32.60;1.00
506;DHT22;551;48.524;9.056;2022-07-23T15:04:32;32.60;1.00
506;DHT22;551;48.524;9.056;2022-07-23T15:06:58;32.40;1.00
506;DHT22;551;48.524;9.056;2022-07-23T15:09:24;32.40;1.00
506;DHT22;551;48.524;9.056;2022-07-23T15:11:49;32.30;1.00
506;DHT22;551;48.524;9.056;2022-07-23T15:14:15;32.40;1.00
506;DHT22;551;48.524;9.056;2022-07-23T15:16:40;32.30;1.00
506;DHT22;551;48.524;9.056;2022-07-23T15:19:06;32.30;1.00
506;DHT22;551;48.524;9.056;2022-07-23T15:21:31;32.30;1.00
506;DHT22;551;48.524;9.056;2022-07-23T15:23:57;32.30;1.00
506;DHT22;551;48.524;9.056;2022-07-23T15:26:25;32.20;1.00
506;DHT22;551;48.524;9.056;2022-07-23T17:25:59;30.20;1.00
506;DHT22;551;48.524;9.056;2022-07-23T17:28:25;30.30;1.00
506;DHT22;551;48.524;9.056;2022-07-23T17:30:51;30.20;1.00
506;DHT22;551;48.524;9.056;2022-07-23T17:33:16;29.80;1.00
506;DHT22;551;48.524;9.056;2022-07-23T17:35:42;30.90;1.00
506;DHT22;551;48.524;9.056;2022-07-23T17:38:07;30.10;1.00
506;DHT22;551;48.524;9.056;2022-07-23T17:40:33;30.20;1.00
506;DHT22;551;48.524;9.056;2022-07-23T17:45:25;29.90;1.00
506;DHT22;551;48.524;9.056;2022-07-23T17:47:52;29.70;1.00
506;DHT22;551;48.524;9.056;2022-07-23T17:50:17;29.60;1.00
506;DHT22;551;48.524;9.056;2022-07-23T18:00:15;29.30;1.00
506;DHT22;551;48.524;9.056;2022-07-23T18:09:59;29.00;1.00
506;DHT22;551;48.524;9.056;2022-07-23T18:12:25;29.80;1.00
506;DHT22;551;48.524;9.056;2022-07-23T18:14:52;29.00;1.00
506;DHT22;551;48.524;9.056;2022-07-23T18:17:18;29.20;1.00
506;DHT22;551;48.524;9.056;2022-07-23T18:19:43;28.40;1.00
506;DHT22;551;48.524;9.056;2022-07-23T18:22:10;28.50;1.00
506;DHT22;551;48.524;9.056;2022-07-23T18:24:35;28.80;1.00
506;DHT22;551;48.524;9.056;2022-07-23T18:27:01;28.40;1.00
506;DHT22;551;48.524;9.056;2022-07-23T18:29:27;28.10;1.00
506;DHT22;551;48.524;9.056;2022-07-23T18:31:53;28.00;1.00
506;DHT22;551;48.524;9.056;2022-07-23T18:34:18;27.90;1.00
506;DHT22;551;48.524;9.056;2022-07-23T18:36:44;28.00;1.00
506;DHT22;551;48.524;9.056;2022-07-23T18:39:10;27.60;1.00
506;DHT22;551;48.524;9.056;2022-07-23T18:41:35;27.70;1.00
506;DHT22;551;48.524;9.056;2022-07-23T18:44:02;28.20;1.00
506;DHT22;551;48.524;9.056;2022-07-23T18:46:28;27.80;1.00
506;DHT22;551;48.524;9.056;2022-07-23T18:48:54;27.90;1.00
506;DHT22;551;48.524;9.056;2022-07-23T18:51:19;27.90;1.00
506;DHT22;551;48.524;9.056;2022-07-23T18:53:45;28.40;1.00
506;DHT22;551;48.524;9.056;2022-07-23T18:56:11;27.70;1.00
506;DHT22;551;48.524;9.056;2022-07-23T19:01:04;27.70;1.00
506;DHT22;551;48.524;9.056;2022-07-23T19:03:30;27.60;1.00
506;DHT22;551;48.524;9.056;2022-07-23T19:05:56;28.00;1.00
506;DHT22;551;48.524;9.056;2022-07-23T19:08:21;27.80;1.00
506;DHT22;551;48.524;9.056;2022-07-23T19:10:47;27.50;1.00
506;DHT22;551;48.524;9.056;2022-07-23T19:13:12;27.10;1.00
506;DHT22;551;48.524;9.056;2022-07-23T19:15:38;27.30;1.00
506;DHT22;551;48.524;9.056;2022-07-23T19:18:04;26.80;1.00
506;DHT22;551;48.524;9.056;2022-07-23T19:20:30;27.70;1.00
506;DHT22;551;48.524;9.056;2022-07-23T19:22:56;27.10;1.00
506;DHT22;551;48.524;9.056;2022-07-23T19:25:21;27.10;1.00
506;DHT22;551;48.524;9.056;2022-07-23T19:27:47;28.20;1.00
506;DHT22;551;48.524;9.056;2022-07-23T19:30:13;27.00;1.00
506;DHT22;551;48.524;9.056;2022-07-23T19:32:39;27.00;1.00
506;DHT22;551;48.524;9.056;2022-07-23T19:35:06;27.10;1.00
506;DHT22;551;48.524;9.056;2022-07-23T19:37:32;26.90;1.00
506;DHT22;551;48.524;9.056;2022-07-23T19:39:58;26.80;1.00
506;DHT22;551;48.524;9.056;2022-07-23T19:42:23;26.50;1.00
506;DHT22;551;48.524;9.056;2022-07-23T19:44:49;26.70;1.00
506;DHT22;551;48.524;9.056;2022-07-23T19:47:17;26.40;1.00
506;DHT22;551;48.524;9.056;2022-07-23T19:49:42;27.30;1.00
506;DHT22;551;48.524;9.056;2022-07-23T19:52:08;26.60;1.00
506;DHT22;551;48.524;9.056;2022-07-23T19:54:36;26.80;1.00
506;DHT22;551;48.524;9.056;2022-07-23T19:57:01;26.50;1.00
506;DHT22;551;48.524;9.056;2022-07-23T19:59:27;26.50;1.00
506;DHT22;551;48.524;9.056;2022-07-23T20:01:52;26.90;1.00
506;DHT22;551;48.524;9.056;2022-07-23T20:04:20;26.50;1.00
506;DHT22;551;48.524;9.056;2022-07-23T20:06:46;26.40;1.00
506;DHT22;551;48.524;9.056;2022-07-23T20:09:11;26.40;1.00
506;DHT22;551;48.524;9.056;2022-07-23T20:11:37;26.80;1.00
506;DHT22;551;48.524;9.056;2022-07-23T20:14:04;26.60;1.00
506;DHT22;551;48.524;9.056;2022-07-23T20:16:30;26.30;1.00
506;DHT22;551;48.524;9.056;2022-07-23T20:18:55;26.30;1.00
506;DHT22;551;48.524;9.056;2022-07-23T20:21:21;26.30;1.00
506;DHT22;551;48.524;9.056;2022-07-23T20:23:47;26.20;1.00
506;DHT22;551;48.524;9.056;2022-07-23T20:26:13;26.80;1.00
506;DHT22;551;48.524;9.056;2022-07-23T20:28:38;26.10;1.00
506;DHT22;551;48.524;9.056;2022-07-23T20:31:04;25.90;1.00
506;DHT22;551;48.524;9.056;2022-07-23T20:33:31;26.00;1.00
506;DHT22;551;48.524;9.056;2022-07-23T20:35:57;25.80;1.00
506;DHT22;551;48.524;9.056;2022-07-23T20:38:23;25.70;1.00
506;DHT22;551;48.524;9.056;2022-07-23T20:40:49;25.80;1.00
506;DHT22;551;48.524;9.056;2022-07-23T20:43:15;25.70;1.00
506;DHT22;551;48.524;9.056;2022-07-23T20:45:41;26.00;1.00
506;DHT22;551;48.524;9.056;2022-07-23T20:48:07;25.40;1.00
506;DHT22;551;48.524;9.056;2022-07-23T20:50:33;26.50;1.00
506;DHT22;551;48.524;9.056;2022-07-23T20:53:02;25.60;1.00
506;DHT22;551;48.524;9.056;2022-07-23T20:55:28;25.70;1.00
506;DHT22;551;48.524;9.056;2022-07-23T20:57:54;25.40;1.00
506;DHT22;551;48.524;9.056;2022-07-23T21:00:20;25.90;1.00
506;DHT22;551;48.524;9.056;2022-07-23T21:02:45;25.50;1.00
506;DHT22;551;48.524;9.056;2022-07-23T21:05:11;25.60;1.00
506;DHT22;551;48.524;9.056;2022-07-23T21:07:36;25.10;1.00
506;DHT22;551;48.524;9.056;2022-07-23T21:10:03;25.30;1.00
506;DHT22;551;48.524;9.056;2022-07-23T21:12:29;25.30;1.00
506;DHT22;551;48.524;9.056;2022-07-23T21:14:54;25.00;1.00
506;DHT22;551;48.524;9.056;2022-07-23T21:17:21;25.30;1.00
506;DHT22;551;48.524;9.056;2022-07-23T21:19:47;24.90;1.00
506;DHT22;551;48.524;9.056;2022-07-23T21:22:12;25.10;1.00
506;DHT22;551;48.524;9.056;2022-07-23T21:24:38;25.00;1.00
506;DHT22;551;48.524;9.056;2022-07-23T21:27:04;24.90;1.00
506;DHT22;551;48.524;9.056;2022-07-23T21:29:29;24.80;1.00
506;DHT22;551;48.524;9.056;2022-07-23T21:31:55;24.70;1.00
506;DHT22;551;48.524;9.056;2022-07-23T21:34:22;24.70;1.00
506;DHT22;551;48.524;9.056;2022-07-23T21:36:50;24.60;1.00
506;DHT22;551;48.524;9.056;2022-07-23T21:39:15;24.20;1.00
506;DHT22;551;48.524;9.056;2022-07-23T21:41:42;24.50;1.00
506;DHT22;551;48.524;9.056;2022-07-23T21:44:08;24.20;1.00
506;DHT22;551;48.524;9.056;2022-07-23T21:46:33;24.20;1.00
506;DHT22;551;48.524;9.056;2022-07-23T21:49:00;24.50;1.00
506;DHT22;551;48.524;9.056;2022-07-23T21:51:27;25.10;1.00
506;DHT22;551;48.524;9.056;2022-07-23T21:53:53;24.40;1.00
506;DHT22;551;48.524;9.056;2022-07-23T21:56:19;24.10;1.00
506;DHT22;551;48.524;9.056;2022-07-23T21:58:45;24.20;1.00
506;DHT22;551;48.524;9.056;2022-07-23T22:01:10;24.20;1.00
506;DHT22;551;48.524;9.056;2022-07-23T22:03:36;24.20;1.00
506;DHT22;551;48.524;9.056;2022-07-23T22:06:02;23.80;1.00
506;DHT22;551;48.524;9.056;2022-07-23T22:08:27;24.10;1.00
506;DHT22;551;48.524;9.056;2022-07-23T22:10:53;24.20;1.00
506;DHT22;551;48.524;9.056;2022-07-23T22:13:18;23.90;1.00
506;DHT22;551;48.524;9.056;2022-07-23T22:15:44;23.90;1.00
506;DHT22;551;48.524;9.056;2022-07-23T22:18:09;23.90;1.00
506;DHT22;551;48.524;9.056;2022-07-23T22:20:35;23.90;1.00
506;DHT22;551;48.524;9.056;2022-07-23T22:23:01;23.90;1.00
506;DHT22;551;48.524;9.056;2022-07-23T22:25:26;23.80;1.00
506;DHT22;551;48.524;9.056;2022-07-23T22:27:52;23.80;1.00
506;DHT22;551;48.524;9.056;2022-07-23T22:30:19;23.70;1.00
506;DHT22;551;48.524;9.056;2022-07-23T22:32:45;23.60;1.00
506;DHT22;551;48.524;9.056;2022-07-23T22:35:12;23.70;1.00
506;DHT22;551;48.524;9.056;2022-07-23T22:37:37;23.70;1.00
506;DHT22;551;48.524;9.056;2022-07-23T22:40:04;23.60;1.00
506;DHT22;551;48.524;9.056;2022-07-23T22:42:30;23.60;1.00
506;DHT22;551;48.524;9.056;2022-07-23T22:44:56;23.20;1.00
506;DHT22;551;48.524;9.056;2022-07-23T22:47:21;23.60;1.00
506;DHT22;551;48.524;9.056;2022-07-23T22:49:47;23.40;1.00
506;DHT22;551;48.524;9.056;2022-07-23T22:52:13;23.20;1.00
506;DHT22;551;48.524;9.056;2022-07-23T22:54:38;23.50;1.00
506;DHT22;551;48.524;9.056;2022-07-23T22:57:04;23.70;1.00
506;DHT22;551;48.524;9.056;2022-07-23T22:59:29;24.10;1.00
506;DHT22;551;48.524;9.056;2022-07-23T23:01:55;23.20;1.00
506;DHT22;551;48.524;9.056;2022-07-23T23:04:22;23.30;1.00
506;DHT22;551;48.524;9.056;2022-07-23T23:06:47;23.20;1.00
506;DHT22;551;48.524;9.056;2022-07-23T23:09:13;23.20;1.00
506;DHT22;551;48.524;9.056;2022-07-23T23:11:39;23.10;1.00
506;DHT22;551;48.524;9.056;2022-07-23T23:14:04;22.80;1.00
506;DHT22;551;48.524;9.056;2022-07-23T23:16:30;23.00;1.00
506;DHT22;551;48.524;9.056;2022-07-23T23:18:55;23.00;1.00
506;DHT22;551;48.524;9.056;2022-07-23T23:21:21;23.10;1.00
506;DHT22;551;48.524;9.056;2022-07-23T23:23:46;22.70;1.00
506;DHT22;551;48.524;9.056;2022-07-23T23:26:12;23.10;1.00
506;DHT22;551;48.524;9.056;2022-07-23T23:28:38;22.90;1.00
506;DHT22;551;48.524;9.056;2022-07-23T23:31:04;23.20;1.00
506;DHT22;551;48.524;9.056;2022-07-23T23:33:29;22.80;1.00
506;DHT22;551;48.524;9.056;2022-07-23T23:35:55;22.70;1.00
506;DHT22;551;48.524;9.056;2022-07-23T23:38:21;22.50;1.00
506;DHT22;551;48.524;9.056;2022-07-23T23:40:46;22.40;1.00
506;DHT22;551;48.524;9.056;2022-07-23T23:43:12;22.70;1.00
506;DHT22;551;48.524;9.056;2022-07-23T23:45:37;22.70;1.00
506;DHT22;551;48.524;9.056;2022-07-23T23:48:05;23.00;1.00
506;DHT22;551;48.524;9.056;2022-07-23T23:50:31;22.60;1.00
506;DHT22;551;48.524;9.056;2022-07-23T23:52:56;22.50;1.00
506;DHT22;551;48.524;9.056;2022-07-23T23:55:23;22.50;1.00
506;DHT22;551;48.524;9.056;2022-07-23T23:57:48;22.40;1.00
